createdAt,value
2023-04-13T00:01:00.229Z,4.47
2023-04-13T00:04:05.148Z,4.10
2023-04-13T00:07:14.596Z,4.70
2023-04-13T00:10:19.160Z,4.00
2023-04-13T00:13:21.901Z,3.97
2023-04-13T00:16:27.153Z,4.20
2023-04-13T00:19:31.445Z,4.00
2023-04-13T00:22:34.105Z,3.55
2023-04-13T00:25:36.949Z,4.00
2023-04-13T00:28:39.637Z,4.00
2023-04-13T00:31:42.872Z,4.37
2023-04-13T00:34:47.026Z,4.10
2023-04-13T00:37:49.835Z,3.83
2023-04-13T00:40:52.634Z,3.53
2023-04-13T00:43:55.290Z,3.75
2023-04-13T00:46:58.234Z,4.53
2023-04-13T00:50:04.733Z,4.40
2023-04-13T00:53:10.714Z,4.35
2023-04-13T00:56:14.782Z,5.10
2023-04-13T00:59:17.929Z,4.30
2023-04-13T01:02:24.783Z,3.90
2023-04-13T01:05:33.473Z,3.87
2023-04-13T01:08:39.600Z,4.47
2023-04-13T01:11:45.807Z,4.82
2023-04-13T01:14:56.818Z,4.47
2023-04-13T01:18:05.370Z,4.93
2023-04-13T01:21:13.241Z,4.60
2023-04-13T01:24:29.744Z,5.13
2023-04-13T01:27:44.328Z,5.18
2023-04-13T01:30:48.544Z,4.38
2023-04-13T01:33:51.473Z,4.87
2023-04-13T01:36:55.660Z,4.93
2023-04-13T01:39:58.503Z,4.85
2023-04-13T01:43:02.814Z,5.00
2023-04-13T01:46:11.231Z,4.10
2023-04-13T01:49:18.632Z,5.40
2023-04-13T01:52:23.556Z,4.50
2023-04-13T01:55:26.850Z,4.95
2023-04-13T01:58:33.676Z,5.20
2023-04-13T02:01:38.750Z,5.22
2023-04-13T02:04:41.892Z,5.10
2023-04-13T02:07:45.763Z,5.23
2023-04-13T02:10:50.176Z,5.18
2023-04-13T02:13:57.725Z,4.90
2023-04-13T02:17:00.743Z,4.72
2023-04-13T02:20:09.067Z,5.23
2023-04-13T02:23:14.674Z,4.70
2023-04-13T02:26:17.885Z,4.10
2023-04-13T02:29:22.694Z,4.90
2023-04-13T02:32:25.436Z,4.25
2023-04-13T02:35:28.486Z,4.27
2023-04-13T02:38:31.958Z,4.00
2023-04-13T02:41:35.175Z,4.05
2023-04-13T02:44:39.770Z,4.13
2023-04-13T02:47:42.727Z,3.55
2023-04-13T02:50:46.183Z,4.10
2023-04-13T02:53:49.149Z,4.33
2023-04-13T02:56:51.965Z,3.65
2023-04-13T02:59:56.005Z,3.72
2023-04-13T03:02:59.490Z,3.90
2023-04-13T03:06:02.479Z,3.83
2023-04-13T03:09:05.623Z,3.93
2023-04-13T03:12:09.261Z,3.60
2023-04-13T03:15:14.740Z,3.47
2023-04-13T03:18:17.609Z,3.67
2023-04-13T03:21:20.752Z,3.60
2023-04-13T03:24:23.479Z,3.50
2023-04-13T03:27:26.592Z,3.42
2023-04-13T03:30:30.835Z,3.63
2023-04-13T03:33:33.573Z,3.28
2023-04-13T03:36:36.447Z,3.50
2023-04-13T03:39:39.850Z,3.27
2023-04-13T03:42:42.679Z,3.40
2023-04-13T03:45:46.824Z,3.80
2023-04-13T03:48:49.649Z,3.40
2023-04-13T03:51:53.073Z,3.00
2023-04-13T03:54:56.658Z,3.37
2023-04-13T03:57:59.437Z,3.28
2023-04-13T04:01:03.582Z,3.22
2023-04-13T04:04:06.674Z,3.03
2023-04-13T04:07:09.472Z,3.13
2023-04-13T04:10:12.497Z,2.93
2023-04-13T04:13:15.549Z,3.15
2023-04-13T04:16:19.685Z,3.75
2023-04-13T04:19:22.483Z,3.20
2023-04-13T04:22:29.780Z,3.60
2023-04-13T04:25:33.675Z,3.23
2023-04-13T04:28:38.789Z,3.17
2023-04-13T04:31:44.165Z,3.72
2023-04-13T04:34:48.310Z,3.53
2023-04-13T04:37:51.021Z,3.53
2023-04-13T04:40:57.702Z,3.40
2023-04-13T04:44:03.502Z,3.28
2023-04-13T04:47:07.690Z,3.58
2023-04-13T04:50:11.411Z,3.28
2023-04-13T04:53:14.172Z,3.47
2023-04-13T04:56:17.039Z,3.20
2023-04-13T04:59:20.717Z,3.70
2023-04-13T05:02:25.005Z,3.60
2023-04-13T05:05:27.988Z,3.30
2023-04-13T05:08:30.757Z,3.20
2023-04-13T05:11:34.412Z,2.90
2023-04-13T05:14:37.262Z,3.72
2023-04-13T05:17:42.033Z,3.40
2023-04-13T05:20:44.980Z,3.20
2023-04-13T05:23:48.101Z,3.37
2023-04-13T05:26:50.953Z,3.50
2023-04-13T05:29:53.668Z,4.00
2023-04-13T05:32:57.783Z,3.85
2023-04-13T05:36:01.306Z,3.58
2023-04-13T05:39:05.769Z,3.70
2023-04-13T05:42:08.641Z,3.97
2023-04-13T05:45:12.105Z,3.78
2023-04-13T05:48:16.378Z,3.88
2023-04-13T05:51:20.378Z,4.35
2023-04-13T05:54:23.244Z,3.63
2023-04-13T05:57:26.152Z,3.57
2023-04-13T06:00:29.427Z,4.20
2023-04-13T06:03:34.779Z,5.00
2023-04-13T06:06:38.072Z,4.30
2023-04-13T06:09:40.762Z,4.77
2023-04-13T06:12:44.795Z,4.53
2023-04-13T06:15:47.470Z,4.30
2023-04-13T06:18:51.717Z,4.00
2023-04-13T06:21:54.566Z,3.88
2023-04-13T06:24:57.253Z,4.07
2023-04-13T06:28:02.168Z,3.63
2023-04-13T06:31:05.361Z,4.28
2023-04-13T06:34:09.719Z,3.80
2023-04-13T06:37:12.602Z,3.42
2023-04-13T06:40:15.806Z,3.90
2023-04-13T06:43:29.015Z,3.63
2023-04-13T06:46:32.570Z,3.13
2023-04-13T06:49:37.043Z,3.50
2023-04-13T06:52:39.801Z,3.33
2023-04-13T06:55:42.621Z,3.00
2023-04-13T06:58:45.868Z,3.50
2023-04-13T07:01:48.672Z,3.58
2023-04-13T07:04:52.992Z,4.15
2023-04-13T07:07:55.756Z,3.65
2023-04-13T07:10:58.829Z,3.67
2023-04-13T07:14:01.670Z,3.13
2023-04-13T07:17:04.482Z,3.60
2023-04-13T07:20:10.159Z,3.08
2023-04-13T07:23:12.859Z,2.70
2023-04-13T07:26:16.217Z,2.80
2023-04-13T07:29:19.271Z,2.70
2023-04-13T07:32:24.492Z,2.92
2023-04-13T07:35:32.359Z,2.90
2023-04-13T07:38:35.066Z,2.60
2023-04-13T07:41:38.290Z,2.40
2023-04-13T07:44:41.163Z,2.20
2023-04-13T07:47:43.882Z,2.20
2023-04-13T07:50:48.338Z,2.30
2023-04-13T07:53:53.250Z,2.20
2023-04-13T07:56:56.604Z,2.10
2023-04-13T07:59:59.569Z,1.97
2023-04-13T08:03:02.455Z,2.10
2023-04-13T08:06:09.711Z,1.80
2023-04-13T08:09:12.411Z,1.55
2023-04-13T08:12:15.447Z,1.40
2023-04-13T08:15:18.211Z,1.60
2023-04-13T08:18:20.982Z,1.38
2023-04-13T08:21:26.420Z,1.25
2023-04-13T08:24:29.296Z,1.52
2023-04-13T08:27:34.759Z,1.17
2023-04-13T08:30:38.038Z,1.00
2023-04-13T08:33:41.174Z,1.10
2023-04-13T08:36:46.261Z,1.30
2023-04-13T08:39:49.215Z,1.00
2023-04-13T08:42:53.180Z,1.07
2023-04-13T08:45:56.009Z,0.93
2023-04-13T08:49:00.203Z,1.33
2023-04-13T08:52:09.204Z,1.02
2023-04-13T08:55:12.647Z,1.10
2023-04-13T08:58:19.701Z,1.10
2023-04-13T09:01:23.741Z,0.90
2023-04-13T09:04:31.873Z,0.82
2023-04-13T09:07:38.786Z,1.00
2023-04-13T09:10:42.228Z,1.10
2023-04-13T09:13:50.245Z,0.97
2023-04-13T09:16:53.579Z,1.00
2023-04-13T09:19:57.445Z,0.80
2023-04-13T09:23:03.722Z,1.00
2023-04-13T09:26:08.431Z,1.00
2023-04-13T09:29:14.315Z,1.00
2023-04-13T09:32:20.700Z,1.07
2023-04-13T09:35:23.538Z,1.00
2023-04-13T09:38:32.950Z,1.20
2023-04-13T09:41:37.266Z,0.90
2023-04-13T09:44:40.645Z,1.40
2023-04-13T09:47:43.656Z,1.20
2023-04-13T09:50:47.025Z,1.00
2023-04-13T09:53:51.185Z,0.75
2023-04-13T09:56:55.646Z,1.00
2023-04-13T10:00:01.495Z,1.07
2023-04-13T10:03:07.618Z,0.80
2023-04-13T10:06:10.992Z,0.80
2023-04-13T10:09:15.710Z,0.80
2023-04-13T10:12:18.823Z,0.80
2023-04-13T10:15:33.548Z,0.67
2023-04-13T10:18:47.208Z,1.10
2023-04-13T10:21:52.470Z,1.00
2023-04-13T10:24:56.759Z,0.80
2023-04-13T10:28:00.687Z,0.93
2023-04-13T10:31:05.632Z,0.90
2023-04-13T10:34:08.701Z,0.90
2023-04-13T10:37:19.352Z,1.10
2023-04-13T10:40:23.697Z,0.90
2023-04-13T10:43:28.467Z,0.70
2023-04-13T10:46:31.517Z,0.80
2023-04-13T10:49:34.419Z,1.00
2023-04-13T10:52:37.284Z,0.80
2023-04-13T10:55:41.334Z,0.70
2023-04-13T10:58:44.029Z,0.70
2023-04-13T11:01:47.417Z,1.20
2023-04-13T11:04:50.837Z,0.70
2023-04-13T11:07:55.639Z,1.00
2023-04-13T11:10:59.958Z,0.77
2023-04-13T11:14:03.668Z,0.55
2023-04-13T11:17:07.988Z,0.80
2023-04-13T11:20:12.050Z,0.80
2023-04-13T11:23:18.265Z,0.77
2023-04-13T11:26:33.850Z,0.90
2023-04-13T11:29:36.700Z,0.75
2023-04-13T11:32:42.868Z,0.70
2023-04-13T11:35:49.742Z,0.63
2023-04-13T11:38:54.393Z,0.60
2023-04-13T11:41:58.735Z,0.80
2023-04-13T11:45:01.785Z,0.80
2023-04-13T11:48:06.254Z,0.93
2023-04-13T11:51:11.057Z,0.67
2023-04-13T11:54:14.326Z,0.80
2023-04-13T11:57:19.191Z,0.90
2023-04-13T12:00:26.318Z,0.70
2023-04-13T12:03:42.008Z,0.83
2023-04-13T12:06:53.190Z,0.83
2023-04-13T12:09:58.975Z,0.90
2023-04-13T12:13:20.312Z,0.80
2023-04-13T12:19:43.789Z,0.90
2023-04-13T12:22:57.667Z,0.60
2023-04-13T12:26:32.132Z,0.63
2023-04-13T12:29:30.030Z,0.93
2023-04-13T12:32:33.704Z,0.60
2023-04-13T12:35:37.167Z,1.10
2023-04-13T12:38:40.606Z,0.87
2023-04-13T12:41:43.346Z,1.00
2023-04-13T12:44:47.532Z,0.52
2023-04-13T12:47:50.368Z,0.60
2023-04-13T12:50:53.085Z,1.00
2023-04-13T12:53:56.078Z,0.70
2023-04-13T12:56:59.664Z,0.90
2023-04-13T13:00:08.863Z,0.90
2023-04-13T13:03:14.615Z,0.80
2023-04-13T13:06:17.800Z,0.97
2023-04-13T13:09:20.818Z,0.80
2023-04-13T13:12:23.764Z,0.90
2023-04-13T13:15:27.860Z,0.80
2023-04-13T13:18:46.666Z,1.02
2023-04-13T13:21:52.218Z,1.00
2023-04-13T13:24:55.121Z,0.90
2023-04-13T13:31:05.136Z,0.75
2023-04-13T13:34:07.962Z,0.90
2023-04-13T13:37:10.792Z,1.00
2023-04-13T13:40:14.209Z,0.77
2023-04-13T13:43:21.229Z,0.63
2023-04-13T13:46:25.414Z,0.82
2023-04-13T13:49:28.367Z,0.70
2023-04-13T13:52:33.523Z,1.20
2023-04-13T13:55:36.314Z,0.90
2023-04-13T13:58:39.146Z,1.00
2023-04-13T14:01:43.276Z,1.10
2023-04-13T14:04:46.393Z,0.80
2023-04-13T14:07:49.188Z,1.00
2023-04-13T14:10:52.034Z,0.80
2023-04-13T14:13:55.083Z,0.77
2023-04-13T14:16:59.154Z,0.80
2023-04-13T14:20:02.360Z,0.80
2023-04-13T14:23:05.233Z,1.00
2023-04-13T14:26:08.909Z,0.70
2023-04-13T14:29:12.065Z,0.73
2023-04-13T14:32:16.457Z,0.90
2023-04-13T14:35:20.136Z,1.02
2023-04-13T14:38:23.687Z,0.80
2023-04-13T14:41:26.552Z,0.80
2023-04-13T14:44:29.490Z,1.00
2023-04-13T14:47:33.636Z,0.75
2023-04-13T14:50:39.253Z,1.00
2023-04-13T14:53:41.969Z,1.10
2023-04-13T14:56:44.727Z,0.80
2023-04-13T14:59:47.468Z,0.80
2023-04-13T15:02:52.683Z,0.80
2023-04-13T15:06:03.260Z,1.40
2023-04-13T15:09:09.562Z,1.30
2023-04-13T15:12:13.762Z,0.80
2023-04-13T15:15:16.981Z,0.90
2023-04-13T15:18:21.162Z,1.15
2023-04-13T15:21:24.073Z,0.90
2023-04-13T15:24:26.868Z,1.57
2023-04-13T15:27:29.795Z,0.88
2023-04-13T15:30:34.568Z,0.90
2023-04-13T15:33:39.072Z,0.93
2023-04-13T15:36:41.894Z,0.90
2023-04-13T15:39:44.640Z,0.70
2023-04-13T15:42:47.512Z,0.60
2023-04-13T15:45:50.321Z,0.77
2023-04-13T15:48:54.567Z,1.00
2023-04-13T15:51:57.401Z,1.08
2023-04-13T15:55:00.386Z,0.60
2023-04-13T15:58:03.902Z,0.85
2023-04-13T16:01:08.017Z,1.00
2023-04-13T16:04:12.518Z,1.00
2023-04-13T16:07:15.576Z,1.00
2023-04-13T16:10:19.139Z,0.60
2023-04-13T16:13:22.599Z,0.60
2023-04-13T16:16:27.352Z,0.70
2023-04-13T16:19:32.674Z,0.70
2023-04-13T16:22:36.462Z,0.90
2023-04-13T16:25:40.126Z,0.60
2023-04-13T16:28:42.901Z,0.70
2023-04-13T16:31:47.550Z,0.70
2023-04-13T16:34:51.812Z,0.70
2023-04-13T16:37:54.624Z,0.73
2023-04-13T16:40:59.676Z,0.60
2023-04-13T16:44:03.038Z,0.80
2023-04-13T16:47:06.031Z,0.70
2023-04-13T16:50:11.217Z,0.70
2023-04-13T16:53:15.965Z,0.60
2023-04-13T16:56:19.960Z,1.05
2023-04-13T16:59:22.737Z,0.90
2023-04-13T17:02:30.955Z,0.63
2023-04-13T17:05:36.021Z,0.80
2023-04-13T17:08:38.769Z,1.00
2023-04-13T17:11:41.476Z,0.80
2023-04-13T17:14:45.438Z,0.90
2023-04-13T17:17:48.655Z,0.80
2023-04-13T17:20:56.293Z,0.90
2023-04-13T17:23:59.053Z,0.98
2023-04-13T17:27:01.859Z,0.95
2023-04-13T17:30:05.346Z,0.90
2023-04-13T17:33:08.266Z,0.90
2023-04-13T17:36:12.602Z,0.82
2023-04-13T17:39:15.594Z,1.00
2023-04-13T17:42:18.702Z,0.90
2023-04-13T17:45:21.812Z,1.00
2023-04-13T17:48:24.738Z,0.83
2023-04-13T17:51:30.584Z,0.90
2023-04-13T17:54:34.121Z,1.00
2023-04-13T17:57:36.974Z,1.00
2023-04-13T18:00:39.801Z,1.30
2023-04-13T18:03:42.983Z,0.90
2023-04-13T18:06:47.424Z,0.90
2023-04-13T18:09:50.148Z,0.93
2023-04-13T18:12:53.017Z,0.70
2023-04-13T18:15:56.041Z,1.00
2023-04-13T18:18:59.473Z,0.83
2023-04-13T18:22:03.726Z,1.10
2023-04-13T18:25:06.708Z,0.90
2023-04-13T18:28:09.526Z,1.10
2023-04-13T18:31:13.432Z,1.08
2023-04-13T18:34:16.432Z,0.80
2023-04-13T18:37:20.668Z,1.17
2023-04-13T18:40:23.608Z,1.10
2023-04-13T18:43:26.463Z,1.13
2023-04-13T18:46:29.220Z,1.17
2023-04-13T18:49:32.113Z,1.10
2023-04-13T18:52:36.235Z,1.05
2023-04-13T18:55:39.602Z,1.50
2023-04-13T18:58:42.477Z,1.08
2023-04-13T19:01:46.412Z,1.45
2023-04-13T19:04:49.331Z,1.50
2023-04-13T19:08:00.856Z,1.27
2023-04-13T19:11:03.793Z,1.40
2023-04-13T19:14:06.470Z,1.23
2023-04-13T19:17:09.158Z,1.55
2023-04-13T19:20:13.274Z,1.77
2023-04-13T19:23:17.342Z,2.50
2023-04-13T19:26:20.177Z,2.97
2023-04-13T19:29:23.062Z,3.40
2023-04-13T19:32:26.171Z,2.90
2023-04-13T19:35:30.159Z,2.73
2023-04-13T19:38:34.213Z,2.60
2023-04-13T19:41:38.884Z,2.97
2023-04-13T19:44:41.737Z,2.67
2023-04-13T19:47:44.832Z,3.20
2023-04-13T19:50:47.743Z,3.20
2023-04-13T19:53:52.709Z,3.20
2023-04-13T19:56:55.667Z,3.63
2023-04-13T19:59:58.988Z,3.25
2023-04-13T20:03:03.328Z,3.45
2023-04-13T20:06:06.476Z,3.70
2023-04-13T20:09:11.911Z,3.80
2023-04-13T20:12:14.693Z,3.85
2023-04-13T20:15:17.612Z,3.42
2023-04-13T20:18:20.360Z,3.83
2023-04-13T20:21:23.115Z,3.80
2023-04-13T20:24:27.328Z,3.90
2023-04-13T20:27:30.322Z,3.92
2023-04-13T20:30:33.455Z,3.67
2023-04-13T20:33:36.151Z,4.00
2023-04-13T20:36:39.007Z,3.70
2023-04-13T20:39:50.033Z,4.03
2023-04-13T20:42:53.039Z,4.10
2023-04-13T20:45:57.405Z,4.50
2023-04-13T20:49:02.320Z,5.22
2023-04-13T20:52:05.267Z,4.63
2023-04-13T20:55:11.617Z,4.05
2023-04-13T20:58:15.912Z,3.80
2023-04-13T21:01:18.977Z,3.03
2023-04-13T21:04:21.845Z,3.00
2023-04-13T21:07:24.599Z,1.97
2023-04-13T21:10:28.893Z,2.13
2023-04-13T21:13:31.629Z,2.20
2023-04-13T21:16:34.502Z,2.30
2023-04-13T21:19:38.002Z,2.60
2023-04-13T21:22:41.008Z,2.07
2023-04-13T21:25:45.353Z,2.30
2023-04-13T21:28:48.092Z,2.50
2023-04-13T21:31:50.956Z,2.72
2023-04-13T21:34:55.152Z,2.67
2023-04-13T21:37:57.873Z,2.20
2023-04-13T21:41:02.174Z,2.30
2023-04-13T21:44:04.892Z,2.60
2023-04-13T21:47:07.771Z,2.47
2023-04-13T21:50:11.205Z,3.00
2023-04-13T21:53:14.067Z,3.13
2023-04-13T21:56:18.163Z,3.20
2023-04-13T21:59:21.045Z,3.60
2023-04-13T22:02:24.556Z,4.35
2023-04-13T22:05:27.359Z,3.97
2023-04-13T22:08:30.160Z,3.50
2023-04-13T22:11:34.254Z,3.28
2023-04-13T22:14:37.101Z,3.60
2023-04-13T22:17:39.844Z,3.60
2023-04-13T22:20:42.917Z,3.88
2023-04-13T22:23:45.648Z,3.15
2023-04-13T22:26:49.788Z,3.08
2023-04-13T22:29:55.764Z,3.40
2023-04-13T22:32:58.686Z,3.45
2023-04-13T22:36:01.562Z,3.75
2023-04-13T22:39:04.296Z,3.40
2023-04-13T22:42:08.496Z,4.18
2023-04-13T22:45:12.191Z,3.67
2023-04-13T22:48:14.886Z,3.63
2023-04-13T22:51:17.656Z,4.10
2023-04-13T22:54:20.319Z,3.78
2023-04-13T22:57:24.584Z,4.18
2023-04-13T23:00:27.360Z,4.10
2023-04-13T23:03:30.289Z,4.07
2023-04-13T23:06:36.042Z,3.92
2023-04-13T23:09:38.822Z,3.55
2023-04-13T23:12:43.025Z,3.50
2023-04-13T23:15:45.772Z,3.40
2023-04-13T23:18:48.511Z,3.10
2023-04-13T23:21:51.241Z,3.08
2023-04-13T23:24:54.115Z,3.30
2023-04-13T23:27:58.131Z,3.90
2023-04-13T23:31:04.910Z,3.13
2023-04-13T23:34:07.618Z,3.70
2023-04-13T23:37:10.503Z,4.07
2023-04-13T23:40:13.715Z,3.03
2023-04-13T23:43:17.949Z,3.35
2023-04-13T23:46:22.623Z,3.47
2023-04-13T23:49:25.414Z,3.50
2023-04-13T23:52:28.908Z,4.15
2023-04-13T23:55:31.946Z,3.78
2023-04-13T23:58:36.160Z,4.05
